createdAt,value
2018-06-25T00:00:19.685Z,53.80
2018-06-25T00:01:24.565Z,53.80
2018-06-25T00:02:29.557Z,53.80
2018-06-25T00:03:34.352Z,53.80
2018-06-25T00:04:39.081Z,53.80
2018-06-25T00:05:44.798Z,53.80
2018-06-25T00:06:50.095Z,53.80
2018-06-25T00:07:56.237Z,53.90
2018-06-25T00:09:01.841Z,53.80
2018-06-25T00:10:06.864Z,53.80
2018-06-25T00:11:12.559Z,53.90
2018-06-25T00:12:18.600Z,53.90
2018-06-25T00:13:23.723Z,53.90
2018-06-25T00:14:28.763Z,53.90
2018-06-25T00:15:33.597Z,53.90
2018-06-25T00:16:38.562Z,53.90
2018-06-25T00:17:43.439Z,54.00
2018-06-25T00:18:48.294Z,54.00
2018-06-25T00:19:53.212Z,54.00
2018-06-25T00:20:58.098Z,54.00
2018-06-25T00:22:03.209Z,54.00
2018-06-25T00:23:08.327Z,54.00
2018-06-25T00:24:13.359Z,54.00
2018-06-25T00:25:18.486Z,54.00
2018-06-25T00:26:23.610Z,54.00
2018-06-25T00:27:28.564Z,54.00
2018-06-25T00:28:33.665Z,54.10
2018-06-25T00:29:38.682Z,54.10
2018-06-25T00:30:43.797Z,54.00
2018-06-25T00:31:48.767Z,54.00
2018-06-25T00:32:53.886Z,54.00
2018-06-25T00:33:58.911Z,54.00
2018-06-25T00:35:03.880Z,54.00
2018-06-25T00:36:08.788Z,54.10
2018-06-25T00:37:13.727Z,54.70
2018-06-25T00:38:18.816Z,54.70
2018-06-25T00:39:23.827Z,54.10
2018-06-25T00:40:28.680Z,54.00
2018-06-25T00:41:33.588Z,54.00
2018-06-25T00:42:38.497Z,54.00
2018-06-25T00:43:43.486Z,54.00
2018-06-25T00:44:48.450Z,54.10
2018-06-25T00:45:53.513Z,54.00
2018-06-25T00:46:58.535Z,54.00
2018-06-25T00:48:03.698Z,54.20
2018-06-25T00:49:08.634Z,54.00
2018-06-25T00:50:13.733Z,54.00
2018-06-25T00:51:18.492Z,54.00
2018-06-25T00:52:23.602Z,54.00
2018-06-25T00:53:28.510Z,54.00
2018-06-25T00:54:33.421Z,54.00
2018-06-25T00:55:38.446Z,54.00
2018-06-25T00:56:43.524Z,53.90
2018-06-25T00:57:48.269Z,54.00
2018-06-25T00:58:53.209Z,54.60
2018-06-25T00:59:58.239Z,54.00
2018-06-25T01:01:03.123Z,54.00
2018-06-25T01:02:08.052Z,53.90
2018-06-25T01:03:12.880Z,53.90
2018-06-25T01:04:17.893Z,54.00
2018-06-25T01:05:22.861Z,53.90
2018-06-25T01:06:27.716Z,53.90
2018-06-25T01:07:32.686Z,53.90
2018-06-25T01:08:37.711Z,53.90
2018-06-25T01:09:42.874Z,53.90
2018-06-25T01:10:47.993Z,53.90
2018-06-25T01:11:53.120Z,53.90
2018-06-25T01:12:58.027Z,53.90
2018-06-25T01:14:03.246Z,53.90
2018-06-25T01:15:08.445Z,53.90
2018-06-25T01:16:13.517Z,53.90
2018-06-25T01:17:18.480Z,53.90
2018-06-25T01:18:23.692Z,53.90
2018-06-25T01:19:28.805Z,54.50
2018-06-25T01:20:33.975Z,53.90
2018-06-25T01:21:39.069Z,53.90
2018-06-25T01:22:44.145Z,53.90
2018-06-25T01:23:49.235Z,53.90
2018-06-25T01:24:54.412Z,53.90
2018-06-25T01:25:59.577Z,53.90
2018-06-25T01:27:04.650Z,53.90
2018-06-25T01:28:09.831Z,54.00
2018-06-25T01:29:14.975Z,53.90
2018-06-25T01:30:20.287Z,53.90
2018-06-25T01:31:25.224Z,53.90
2018-06-25T01:32:30.300Z,53.90
2018-06-25T01:33:35.558Z,53.90
2018-06-25T01:34:40.728Z,53.90
2018-06-25T01:35:45.694Z,53.90
2018-06-25T01:36:50.747Z,53.90
2018-06-25T01:37:56.483Z,53.90
2018-06-25T01:39:01.589Z,53.90
2018-06-25T01:40:06.631Z,53.90
2018-06-25T01:41:11.711Z,53.90
2018-06-25T01:42:16.626Z,53.90
2018-06-25T01:43:21.644Z,53.90
2018-06-25T01:44:26.850Z,53.90
2018-06-25T01:45:32.000Z,53.90
2018-06-25T01:46:36.999Z,53.90
2018-06-25T01:47:41.931Z,53.80
2018-06-25T01:48:46.935Z,53.80
2018-06-25T01:49:51.885Z,53.80
2018-06-25T01:50:56.907Z,53.80
2018-06-25T01:52:01.858Z,53.80
2018-06-25T01:53:06.777Z,53.80
2018-06-25T01:54:14.481Z,53.80
2018-06-25T01:55:19.240Z,53.80
2018-06-25T01:56:24.094Z,53.80
2018-06-25T01:57:28.912Z,53.80
2018-06-25T01:58:33.686Z,53.80
2018-06-25T01:59:38.424Z,53.80
2018-06-25T02:00:43.502Z,53.80
2018-06-25T02:01:48.320Z,54.50
2018-06-25T02:02:53.096Z,53.80
2018-06-25T02:03:58.065Z,53.80
2018-06-25T02:05:02.867Z,53.80
2018-06-25T02:06:07.660Z,53.70
2018-06-25T02:07:12.435Z,53.70
2018-06-25T02:08:17.135Z,53.80
2018-06-25T02:09:21.926Z,53.80
2018-06-25T02:10:26.823Z,53.70
2018-06-25T02:11:31.566Z,53.70
2018-06-25T02:12:36.328Z,53.80
2018-06-25T02:13:41.205Z,53.80
2018-06-25T02:14:46.246Z,53.80
2018-06-25T02:15:51.213Z,53.70
2018-06-25T02:16:56.249Z,53.70
2018-06-25T02:18:01.156Z,53.80
2018-06-25T02:19:06.219Z,53.70
2018-06-25T02:20:11.221Z,53.70
2018-06-25T02:21:16.221Z,53.70
2018-06-25T02:22:21.314Z,53.70
2018-06-25T02:23:26.261Z,53.70
2018-06-25T02:24:31.191Z,53.70
2018-06-25T02:25:37.774Z,53.70
2018-06-25T02:26:44.798Z,53.70
2018-06-25T02:27:49.755Z,53.70
2018-06-25T02:28:54.610Z,53.70
2018-06-25T02:29:59.431Z,53.70
2018-06-25T02:31:04.323Z,53.70
2018-06-25T02:32:09.369Z,53.70
2018-06-25T02:33:14.266Z,53.70
2018-06-25T02:34:19.313Z,53.70
2018-06-25T02:35:24.326Z,53.70
2018-06-25T02:36:29.430Z,53.70
2018-06-25T02:37:34.496Z,53.70
2018-06-25T02:38:39.629Z,53.70
2018-06-25T02:39:44.595Z,53.70
2018-06-25T02:40:49.778Z,53.70
2018-06-25T02:41:54.894Z,53.70
2018-06-25T02:42:59.906Z,53.80
2018-06-25T02:44:04.870Z,53.80
2018-06-25T02:45:09.864Z,53.70
2018-06-25T02:46:14.810Z,53.80
2018-06-25T02:47:19.769Z,53.80
2018-06-25T02:48:24.512Z,53.80
2018-06-25T02:49:29.456Z,53.80
2018-06-25T02:50:34.484Z,53.80
2018-06-25T02:51:39.496Z,53.70
2018-06-25T02:52:44.296Z,53.80
2018-06-25T02:53:49.925Z,53.80
2018-06-25T02:54:54.751Z,53.70
2018-06-25T02:55:59.670Z,53.70
2018-06-25T02:57:04.457Z,53.70
2018-06-25T02:58:09.277Z,53.70
2018-06-25T02:59:14.101Z,53.70
2018-06-25T03:00:18.790Z,53.70
2018-06-25T03:01:23.545Z,53.70
2018-06-25T03:02:28.803Z,53.70
2018-06-25T03:03:33.566Z,53.70
2018-06-25T03:04:38.522Z,53.70
2018-06-25T03:05:43.308Z,53.80
2018-06-25T03:06:48.131Z,53.70
2018-06-25T03:07:52.918Z,53.70
2018-06-25T03:08:57.953Z,53.70
2018-06-25T03:10:02.719Z,53.70
2018-06-25T03:11:07.715Z,53.70
2018-06-25T03:12:12.521Z,53.70
2018-06-25T03:13:17.300Z,53.70
2018-06-25T03:14:22.301Z,53.80
2018-06-25T03:15:27.152Z,53.70
2018-06-25T03:16:32.079Z,53.70
2018-06-25T03:17:36.953Z,53.70
2018-06-25T03:18:42.071Z,53.80
2018-06-25T03:19:47.175Z,53.80
2018-06-25T03:20:52.238Z,53.80
2018-06-25T03:21:57.266Z,53.80
2018-06-25T03:23:02.270Z,53.80
2018-06-25T03:24:07.246Z,53.80
2018-06-25T03:25:12.357Z,53.80
2018-06-25T03:26:17.307Z,53.80
2018-06-25T03:27:22.209Z,53.80
2018-06-25T03:28:27.262Z,53.80
2018-06-25T03:29:32.233Z,53.80
2018-06-25T03:30:37.169Z,53.80
2018-06-25T03:31:42.222Z,53.80
2018-06-25T03:32:47.352Z,53.80
2018-06-25T03:33:52.369Z,53.80
2018-06-25T03:34:57.438Z,53.80
2018-06-25T03:36:02.512Z,53.80
2018-06-25T03:37:07.603Z,53.80
2018-06-25T03:38:12.515Z,53.90
2018-06-25T03:39:17.609Z,53.80
2018-06-25T03:40:22.523Z,53.80
2018-06-25T03:41:27.549Z,53.80
2018-06-25T03:42:32.613Z,53.90
2018-06-25T03:43:37.480Z,53.90
2018-06-25T03:44:42.477Z,53.90
2018-06-25T03:45:47.504Z,53.90
2018-06-25T03:46:52.299Z,53.90
2018-06-25T03:47:57.148Z,53.90
2018-06-25T03:49:02.054Z,53.90
2018-06-25T03:50:07.139Z,53.90
2018-06-25T03:51:12.023Z,53.90
2018-06-25T03:52:16.957Z,53.90
2018-06-25T03:53:21.948Z,53.90
2018-06-25T03:54:26.754Z,53.90
2018-06-25T03:55:31.799Z,53.90
2018-06-25T03:56:36.863Z,53.90
2018-06-25T03:57:41.738Z,53.90
2018-06-25T03:58:46.590Z,53.90
2018-06-25T03:59:51.544Z,53.90
2018-06-25T04:00:56.441Z,53.90
2018-06-25T04:02:01.534Z,54.60
2018-06-25T04:03:06.442Z,53.80
2018-06-25T04:04:11.396Z,54.00
2018-06-25T04:05:16.761Z,54.00
2018-06-25T04:06:22.218Z,54.00
2018-06-25T04:07:27.172Z,54.60
2018-06-25T04:08:32.256Z,54.00
2018-06-25T04:09:37.221Z,54.00
2018-06-25T04:10:42.595Z,54.00
2018-06-25T04:11:47.635Z,54.00
2018-06-25T04:12:52.604Z,54.00
2018-06-25T04:13:57.556Z,54.00
2018-06-25T04:15:02.818Z,54.00
2018-06-25T04:16:07.975Z,54.00
2018-06-25T04:17:13.102Z,54.10
2018-06-25T04:18:18.286Z,54.00
2018-06-25T04:19:23.393Z,53.90
2018-06-25T04:20:28.501Z,53.90
2018-06-25T04:21:33.633Z,54.00
2018-06-25T04:22:38.579Z,54.10
2018-06-25T04:23:43.601Z,54.00
2018-06-25T04:24:48.809Z,54.00
2018-06-25T04:25:53.832Z,54.10
2018-06-25T04:26:58.884Z,54.10
2018-06-25T04:28:03.973Z,54.00
2018-06-25T04:29:09.305Z,54.00
2018-06-25T04:30:14.548Z,54.00
2018-06-25T04:31:19.471Z,54.00
2018-06-25T04:32:24.603Z,54.00
2018-06-25T04:33:29.535Z,54.00
2018-06-25T04:34:34.402Z,54.10
2018-06-25T04:35:39.466Z,54.10
2018-06-25T04:36:44.506Z,54.10
2018-06-25T04:37:49.377Z,54.70
2018-06-25T04:38:54.385Z,54.10
2018-06-25T04:39:59.230Z,54.10
2018-06-25T04:41:04.205Z,54.10
2018-06-25T04:42:09.184Z,54.10
2018-06-25T04:43:14.211Z,54.10
2018-06-25T04:44:19.246Z,54.10
2018-06-25T04:45:24.144Z,54.10
2018-06-25T04:46:28.957Z,54.10
2018-06-25T04:47:33.981Z,54.10
2018-06-25T04:48:39.158Z,54.10
2018-06-25T04:49:44.224Z,54.10
2018-06-25T04:50:49.267Z,54.10
2018-06-25T04:51:54.039Z,54.10
2018-06-25T04:52:59.004Z,54.20
2018-06-25T04:54:03.863Z,54.10
2018-06-25T04:55:08.699Z,54.10
2018-06-25T04:56:15.207Z,54.20
2018-06-25T04:57:20.303Z,54.20
2018-06-25T04:58:25.090Z,54.20
2018-06-25T04:59:29.897Z,54.20
2018-06-25T05:00:34.957Z,54.20
2018-06-25T05:01:39.796Z,54.20
2018-06-25T05:02:44.655Z,54.20
2018-06-25T05:03:49.614Z,54.30
2018-06-25T05:04:54.622Z,54.20
2018-06-25T05:05:59.532Z,54.20
2018-06-25T05:07:04.570Z,54.20
2018-06-25T05:08:09.723Z,54.20
2018-06-25T05:09:14.738Z,54.20
2018-06-25T05:10:19.763Z,54.20
2018-06-25T05:11:24.774Z,54.20
2018-06-25T05:12:29.956Z,54.20
2018-06-25T05:13:34.881Z,54.20
2018-06-25T05:14:39.964Z,54.30
2018-06-25T05:15:44.935Z,54.30
2018-06-25T05:16:49.923Z,54.30
2018-06-25T05:17:55.082Z,54.30
2018-06-25T05:18:59.943Z,54.30
2018-06-25T05:20:04.940Z,54.30
2018-06-25T05:21:09.804Z,54.30
2018-06-25T05:22:14.932Z,54.30
2018-06-25T05:23:19.825Z,54.30
2018-06-25T05:24:24.850Z,54.30
2018-06-25T05:25:29.931Z,54.50
2018-06-25T05:26:35.000Z,54.30
2018-06-25T05:27:39.926Z,54.30
2018-06-25T05:28:44.993Z,54.30
2018-06-25T05:29:50.103Z,54.50
2018-06-25T05:30:55.111Z,54.30
2018-06-25T05:32:00.064Z,54.40
2018-06-25T05:33:05.078Z,54.40
2018-06-25T05:34:10.009Z,54.30
2018-06-25T05:35:15.083Z,54.30
2018-06-25T05:36:20.192Z,54.30
2018-06-25T05:37:25.276Z,54.40
2018-06-25T05:38:30.272Z,54.40
2018-06-25T05:39:35.379Z,54.40
2018-06-25T05:40:40.392Z,54.40
2018-06-25T05:41:45.285Z,54.40
2018-06-25T05:42:50.219Z,54.40
2018-06-25T05:43:55.122Z,54.40
2018-06-25T05:45:00.215Z,54.40
2018-06-25T05:46:05.222Z,54.40
2018-06-25T05:47:10.290Z,54.40
2018-06-25T05:48:15.364Z,54.40
2018-06-25T05:49:20.281Z,54.40
2018-06-25T05:50:25.367Z,54.40
2018-06-25T05:51:30.171Z,55.00
2018-06-25T05:52:35.213Z,54.40
2018-06-25T05:53:40.279Z,54.40
2018-06-25T05:54:45.528Z,54.40
2018-06-25T05:55:50.491Z,54.40
2018-06-25T05:56:55.693Z,54.40
2018-06-25T05:58:00.868Z,54.40
2018-06-25T05:59:05.943Z,54.40
2018-06-25T06:00:10.892Z,54.40
2018-06-25T06:01:15.886Z,54.40
2018-06-25T06:02:21.108Z,54.40
2018-06-25T06:03:26.186Z,54.40
2018-06-25T06:04:31.259Z,54.50
2018-06-25T06:05:36.399Z,54.40
2018-06-25T06:06:41.291Z,54.40
2018-06-25T06:07:46.383Z,54.50
2018-06-25T06:08:51.505Z,54.40
2018-06-25T06:09:56.400Z,54.40
2018-06-25T06:11:01.858Z,54.40
2018-06-25T06:12:07.004Z,54.40
2018-06-25T06:13:12.081Z,54.50
2018-06-25T06:14:17.109Z,54.50
2018-06-25T06:15:22.067Z,54.50
2018-06-25T06:16:27.138Z,54.40
2018-06-25T06:17:32.042Z,54.40
2018-06-25T06:18:37.005Z,54.50
2018-06-25T06:19:42.009Z,54.50
2018-06-25T06:20:47.057Z,54.50
2018-06-25T06:21:52.081Z,54.70
2018-06-25T06:22:57.067Z,54.80
2018-06-25T06:24:01.989Z,54.90
2018-06-25T06:25:08.836Z,55.10
2018-06-25T06:26:13.788Z,55.30
2018-06-25T06:27:18.623Z,55.40
2018-06-25T06:28:23.552Z,55.40
2018-06-25T06:29:28.500Z,55.40
2018-06-25T06:30:33.467Z,55.50
2018-06-25T06:31:38.412Z,55.40
2018-06-25T06:32:43.392Z,55.40
2018-06-25T06:33:48.179Z,55.30
2018-06-25T06:34:53.245Z,55.60
2018-06-25T06:35:58.168Z,55.70
2018-06-25T06:37:03.059Z,55.90
2018-06-25T06:38:07.899Z,56.00
2018-06-25T06:39:12.893Z,56.00
2018-06-25T06:40:17.742Z,55.90
2018-06-25T06:41:22.733Z,56.10
2018-06-25T06:42:27.755Z,56.10
2018-06-25T06:43:32.861Z,56.10
2018-06-25T06:44:37.968Z,56.20
2018-06-25T06:45:42.908Z,56.20
2018-06-25T06:46:47.838Z,56.40
2018-06-25T06:47:52.840Z,56.30
2018-06-25T06:48:59.082Z,56.40
2018-06-25T06:50:04.627Z,56.30
2018-06-25T06:51:09.600Z,56.30
2018-06-25T06:52:14.474Z,57.10
2018-06-25T06:53:19.440Z,56.60
2018-06-25T06:54:24.598Z,56.60
2018-06-25T06:55:29.433Z,56.70
2018-06-25T06:56:34.578Z,56.70
2018-06-25T06:57:39.476Z,56.80
2018-06-25T06:58:44.313Z,56.90
2018-06-25T06:59:49.267Z,56.90
2018-06-25T07:00:54.026Z,57.10
2018-06-25T07:01:58.877Z,57.10
2018-06-25T07:03:03.948Z,57.10
2018-06-25T07:04:08.673Z,57.20
2018-06-25T07:05:13.670Z,57.20
2018-06-25T07:06:18.725Z,57.10
2018-06-25T07:07:23.664Z,57.10
2018-06-25T07:08:28.729Z,57.10
2018-06-25T07:09:33.785Z,57.10
2018-06-25T07:10:38.843Z,57.30
2018-06-25T07:11:44.083Z,57.30
2018-06-25T07:12:48.945Z,57.20
2018-06-25T07:13:54.057Z,57.30
2018-06-25T07:14:59.185Z,57.30
2018-06-25T07:16:04.136Z,57.20
2018-06-25T07:17:09.197Z,57.20
2018-06-25T07:18:14.385Z,57.20
2018-06-25T07:19:19.417Z,57.30
2018-06-25T07:20:24.423Z,57.40
2018-06-25T07:21:29.443Z,57.30
2018-06-25T07:22:35.286Z,57.10
2018-06-25T07:23:40.629Z,56.70
2018-06-25T07:24:46.211Z,56.50
2018-06-25T07:25:52.753Z,56.40
2018-06-25T07:26:58.054Z,56.40
2018-06-25T07:28:03.008Z,56.40
2018-06-25T07:29:07.994Z,56.30
2018-06-25T07:30:12.893Z,56.40
2018-06-25T07:31:17.730Z,56.50
2018-06-25T07:32:22.637Z,56.60
2018-06-25T07:33:27.619Z,56.50
2018-06-25T07:34:32.453Z,56.70
2018-06-25T07:35:37.421Z,56.60
2018-06-25T07:36:42.386Z,56.50
2018-06-25T07:37:47.208Z,56.40
2018-06-25T07:38:52.250Z,56.30
2018-06-25T07:39:57.004Z,56.50
2018-06-25T07:41:02.252Z,56.60
2018-06-25T07:42:07.201Z,56.70
2018-06-25T07:43:12.164Z,56.80
2018-06-25T07:44:17.138Z,56.70
2018-06-25T07:45:22.190Z,56.50
2018-06-25T07:46:27.217Z,56.50
2018-06-25T07:47:32.016Z,56.40
2018-06-25T07:48:36.909Z,56.40
2018-06-25T07:49:41.697Z,56.50
2018-06-25T07:50:46.674Z,56.50
2018-06-25T07:51:51.454Z,56.40
2018-06-25T07:52:56.326Z,56.40
2018-06-25T07:54:01.364Z,56.40
2018-06-25T07:55:06.323Z,56.60
2018-06-25T07:56:11.144Z,56.80
2018-06-25T07:57:15.937Z,56.70
2018-06-25T07:58:20.810Z,56.70
2018-06-25T07:59:25.587Z,56.60
2018-06-25T08:00:30.559Z,56.50
2018-06-25T08:01:35.536Z,56.70
2018-06-25T08:02:40.447Z,56.50
2018-06-25T08:03:45.439Z,56.50
2018-06-25T08:04:50.199Z,56.40
2018-06-25T08:05:55.047Z,56.30
2018-06-25T08:06:59.822Z,56.30
2018-06-25T08:08:04.839Z,56.20
2018-06-25T08:09:09.888Z,56.10
2018-06-25T08:10:15.063Z,56.20
2018-06-25T08:11:20.197Z,56.10
2018-06-25T08:12:25.137Z,56.10
2018-06-25T08:13:30.172Z,55.90
2018-06-25T08:14:35.187Z,55.90
2018-06-25T08:15:40.125Z,55.80
2018-06-25T08:16:45.298Z,56.20
2018-06-25T08:17:50.256Z,56.10
2018-06-25T08:18:55.271Z,56.10
2018-06-25T08:20:00.266Z,56.20
2018-06-25T08:21:05.144Z,56.20
2018-06-25T08:22:09.992Z,56.20
2018-06-25T08:23:14.994Z,56.20
2018-06-25T08:24:20.106Z,56.30
2018-06-25T08:25:25.082Z,56.30
2018-06-25T08:26:30.036Z,56.30
2018-06-25T08:27:35.078Z,56.30
2018-06-25T08:28:40.125Z,56.30
2018-06-25T08:29:45.158Z,56.30
2018-06-25T08:30:50.098Z,56.40
2018-06-25T08:31:55.112Z,56.40
2018-06-25T08:33:00.036Z,56.40
2018-06-25T08:34:04.943Z,56.40
2018-06-25T08:35:09.723Z,56.50
2018-06-25T08:36:14.583Z,56.40
2018-06-25T08:37:19.606Z,56.40
2018-06-25T08:38:24.940Z,56.30
2018-06-25T08:39:29.860Z,56.30
2018-06-25T08:40:34.975Z,56.30
2018-06-25T08:41:39.723Z,56.30
2018-06-25T08:42:44.502Z,56.30
2018-06-25T08:43:49.360Z,56.30
2018-06-25T08:44:54.388Z,56.40
2018-06-25T08:45:59.225Z,56.40
2018-06-25T08:47:04.185Z,56.20
2018-06-25T08:48:09.138Z,56.20
2018-06-25T08:49:14.173Z,56.20
2018-06-25T08:50:19.037Z,56.30
2018-06-25T08:51:23.993Z,56.20
2018-06-25T08:52:29.032Z,56.10
2018-06-25T08:53:33.827Z,56.00
2018-06-25T08:54:38.749Z,56.10
2018-06-25T08:55:43.735Z,56.10
2018-06-25T08:56:48.565Z,56.20
2018-06-25T08:57:53.703Z,56.00
2018-06-25T08:58:58.550Z,55.90
2018-06-25T09:00:03.636Z,56.00
2018-06-25T09:01:08.624Z,55.90
2018-06-25T09:02:13.639Z,56.00
2018-06-25T09:03:18.490Z,56.10
2018-06-25T09:04:23.413Z,56.00
2018-06-25T09:05:28.392Z,55.90
2018-06-25T09:06:33.530Z,55.90
2018-06-25T09:07:38.533Z,55.90
2018-06-25T09:08:43.714Z,55.90
2018-06-25T09:09:48.812Z,55.80
2018-06-25T09:10:53.907Z,55.90
2018-06-25T09:11:59.080Z,55.80
2018-06-25T09:13:04.125Z,55.90
2018-06-25T09:14:09.143Z,55.90
2018-06-25T09:15:14.343Z,55.90
2018-06-25T09:16:19.262Z,55.80
2018-06-25T09:17:24.372Z,55.80
2018-06-25T09:18:29.427Z,55.80
2018-06-25T09:19:34.524Z,55.90
2018-06-25T09:20:39.527Z,55.90
2018-06-25T09:21:44.745Z,55.90
2018-06-25T09:22:49.913Z,55.90
2018-06-25T09:23:54.981Z,55.80
2018-06-25T09:25:00.240Z,55.80
2018-06-25T09:26:05.382Z,55.90
2018-06-25T09:27:10.430Z,55.80
2018-06-25T09:28:15.502Z,55.80
2018-06-25T09:29:20.548Z,55.80
2018-06-25T09:30:25.495Z,55.90
2018-06-25T09:31:30.561Z,55.90
2018-06-25T09:32:35.660Z,55.80
2018-06-25T09:33:40.829Z,55.80
2018-06-25T09:34:46.195Z,55.90
2018-06-25T09:35:51.248Z,55.90
2018-06-25T09:36:56.253Z,55.90
2018-06-25T09:38:01.310Z,56.10
2018-06-25T09:39:06.471Z,56.10
2018-06-25T09:40:11.661Z,55.90
2018-06-25T09:41:16.579Z,56.00
2018-06-25T09:42:21.583Z,55.90
2018-06-25T09:43:26.515Z,55.80
2018-06-25T09:44:31.571Z,55.80
2018-06-25T09:45:36.811Z,55.90
2018-06-25T09:46:41.708Z,56.10
2018-06-25T09:47:46.796Z,56.00
2018-06-25T09:48:51.882Z,55.90
2018-06-25T09:49:56.695Z,56.00
2018-06-25T09:51:01.769Z,56.00
2018-06-25T09:52:06.801Z,56.00
2018-06-25T09:53:11.930Z,56.10
2018-06-25T09:54:16.870Z,56.10
2018-06-25T09:55:21.832Z,56.10
2018-06-25T09:56:26.941Z,56.10
2018-06-25T09:57:31.943Z,56.10
2018-06-25T09:58:36.860Z,56.20
2018-06-25T09:59:41.781Z,56.20
2018-06-25T10:00:46.657Z,56.20
2018-06-25T10:01:51.527Z,56.40
2018-06-25T10:02:56.298Z,56.10
2018-06-25T10:04:01.326Z,56.20
2018-06-25T10:05:06.357Z,56.20
2018-06-25T10:06:11.359Z,56.20
2018-06-25T10:07:16.395Z,56.30
2018-06-25T10:08:21.441Z,56.30
2018-06-25T10:09:26.388Z,56.30
2018-06-25T10:10:31.508Z,56.70
2018-06-25T10:11:36.603Z,56.60
2018-06-25T10:12:41.724Z,56.80
2018-06-25T10:13:46.781Z,56.70
2018-06-25T10:14:51.898Z,56.90
2018-06-25T10:15:56.837Z,57.00
2018-06-25T10:17:02.001Z,57.10
2018-06-25T10:18:06.998Z,57.00
2018-06-25T10:19:12.078Z,56.90
2018-06-25T10:20:16.937Z,56.90
2018-06-25T10:21:21.884Z,56.70
2018-06-25T10:22:26.932Z,56.90
2018-06-25T10:23:31.927Z,56.90
2018-06-25T10:24:36.811Z,56.90
2018-06-25T10:25:41.834Z,56.70
2018-06-25T10:26:46.642Z,56.70
2018-06-25T10:27:51.810Z,56.70
2018-06-25T10:28:56.780Z,56.70
2018-06-25T10:30:01.754Z,56.60
2018-06-25T10:31:06.562Z,56.70
2018-06-25T10:32:11.685Z,57.40
2018-06-25T10:33:16.675Z,56.60
2018-06-25T10:34:21.593Z,56.40
2018-06-25T10:35:26.522Z,56.40
2018-06-25T10:36:31.476Z,56.40
2018-06-25T10:37:36.214Z,56.30
2018-06-25T10:38:40.982Z,56.30
2018-06-25T10:39:45.791Z,56.30
2018-06-25T10:40:50.611Z,56.30
2018-06-25T10:41:55.401Z,56.30
2018-06-25T10:43:00.312Z,56.30
2018-06-25T10:44:05.144Z,56.30
2018-06-25T10:45:10.088Z,56.20
2018-06-25T10:46:15.131Z,56.20
2018-06-25T10:47:20.747Z,56.20
2018-06-25T10:48:25.885Z,56.20
2018-06-25T10:49:30.765Z,56.30
2018-06-25T10:50:35.740Z,56.30
2018-06-25T10:51:40.591Z,56.30
2018-06-25T10:52:45.559Z,56.30
2018-06-25T10:53:50.393Z,56.30
2018-06-25T10:54:55.197Z,56.20
2018-06-25T10:56:00.182Z,56.20
2018-06-25T10:57:04.985Z,56.10
2018-06-25T10:58:10.282Z,56.10
2018-06-25T10:59:15.224Z,56.10
2018-06-25T11:00:20.265Z,56.20
2018-06-25T11:01:25.093Z,56.20
2018-06-25T11:02:30.693Z,56.30
2018-06-25T11:03:35.842Z,56.20
2018-06-25T11:04:40.952Z,56.30
2018-06-25T11:05:45.886Z,56.40
2018-06-25T11:06:50.938Z,56.40
2018-06-25T11:07:55.978Z,56.50
2018-06-25T11:09:00.968Z,56.40
2018-06-25T11:10:06.045Z,56.40
2018-06-25T11:11:10.885Z,56.30
2018-06-25T11:12:15.747Z,56.30
2018-06-25T11:13:20.826Z,56.20
2018-06-25T11:14:25.888Z,56.10
2018-06-25T11:15:31.059Z,56.10
2018-06-25T11:16:36.047Z,56.10
2018-06-25T11:17:40.997Z,56.90
2018-06-25T11:18:46.038Z,56.40
2018-06-25T11:19:51.217Z,56.50
2018-06-25T11:20:56.095Z,56.50
2018-06-25T11:22:01.076Z,56.70
2018-06-25T11:23:06.247Z,56.80
2018-06-25T11:24:10.986Z,56.90
2018-06-25T11:25:15.850Z,57.00
2018-06-25T11:26:20.892Z,57.10
2018-06-25T11:27:25.812Z,57.30
2018-06-25T11:28:30.769Z,57.30
2018-06-25T11:29:35.763Z,57.40
2018-06-25T11:30:40.804Z,57.40
2018-06-25T11:31:45.777Z,57.40
2018-06-25T11:32:50.684Z,57.50
2018-06-25T11:33:55.761Z,57.60
2018-06-25T11:35:01.022Z,57.60
2018-06-25T11:36:06.134Z,57.10
2018-06-25T11:37:11.145Z,56.80
2018-06-25T11:38:16.064Z,56.70
2018-06-25T11:39:21.082Z,56.60
2018-06-25T11:40:25.852Z,56.50
2018-06-25T11:41:30.849Z,56.50
2018-06-25T11:42:35.829Z,56.50
2018-06-25T11:43:40.646Z,56.40
2018-06-25T11:44:45.718Z,56.40
2018-06-25T11:45:50.579Z,56.30
2018-06-25T11:46:55.715Z,56.30
2018-06-25T11:48:00.806Z,56.40
2018-06-25T11:49:05.866Z,56.40
2018-06-25T11:50:11.039Z,56.30
2018-06-25T11:51:16.084Z,56.30
2018-06-25T11:52:21.219Z,56.20
2018-06-25T11:53:26.717Z,56.20
2018-06-25T11:54:31.906Z,56.20
2018-06-25T11:55:36.901Z,56.10
2018-06-25T11:56:41.834Z,56.20
2018-06-25T11:57:46.862Z,56.20
2018-06-25T11:58:51.739Z,56.10
2018-06-25T11:59:56.711Z,56.20
2018-06-25T12:01:01.685Z,56.10
2018-06-25T12:02:06.859Z,56.00
2018-06-25T12:03:12.103Z,56.00
2018-06-25T12:04:16.926Z,56.00
2018-06-25T12:05:22.294Z,56.00
2018-06-25T12:06:27.555Z,56.00
2018-06-25T12:07:32.552Z,56.10
2018-06-25T12:08:37.472Z,56.00
2018-06-25T12:09:42.413Z,55.90
2018-06-25T12:10:47.330Z,56.00
2018-06-25T12:11:52.649Z,55.90
2018-06-25T12:12:57.667Z,55.90
2018-06-25T12:14:02.883Z,55.90
2018-06-25T12:15:07.940Z,55.80
2018-06-25T12:16:12.971Z,55.80
2018-06-25T12:17:17.959Z,55.70
2018-06-25T12:18:23.400Z,55.60
2018-06-25T12:19:29.722Z,55.60
2018-06-25T12:20:34.706Z,55.60
2018-06-25T12:21:39.731Z,55.60
2018-06-25T12:22:44.902Z,55.60
2018-06-25T12:23:50.067Z,56.00
2018-06-25T12:24:55.148Z,55.60
2018-06-25T12:26:00.234Z,55.60
2018-06-25T12:27:05.405Z,55.60
2018-06-25T12:28:10.819Z,55.70
2018-06-25T12:29:15.804Z,55.60
2018-06-25T12:30:20.697Z,55.60
2018-06-25T12:31:25.650Z,55.50
2018-06-25T12:32:30.894Z,55.40
2018-06-25T12:33:35.672Z,55.50
2018-06-25T12:34:40.506Z,55.50
2018-06-25T12:35:45.366Z,55.40
2018-06-25T12:36:50.275Z,55.40
2018-06-25T12:37:55.501Z,55.30
2018-06-25T12:39:00.952Z,55.30
2018-06-25T12:40:05.938Z,55.30
2018-06-25T12:41:10.950Z,55.20
2018-06-25T12:42:16.030Z,55.20
2018-06-25T12:43:21.010Z,55.20
2018-06-25T12:44:25.944Z,55.20
2018-06-25T12:45:31.205Z,55.20
2018-06-25T12:46:36.198Z,55.10
2018-06-25T12:47:41.192Z,55.10
2018-06-25T12:48:46.045Z,55.10
2018-06-25T12:49:51.216Z,55.10
2018-06-25T12:50:56.363Z,55.10
2018-06-25T12:52:01.597Z,55.10
2018-06-25T12:53:06.786Z,55.10
2018-06-25T12:54:12.051Z,55.10
2018-06-25T12:55:17.261Z,55.80
2018-06-25T12:56:22.493Z,55.10
2018-06-25T12:57:27.465Z,55.10
2018-06-25T12:58:32.418Z,55.20
2018-06-25T12:59:37.508Z,55.20
2018-06-25T13:00:42.786Z,55.10
2018-06-25T13:01:48.124Z,55.00
2018-06-25T13:02:53.615Z,54.90
2018-06-25T13:03:58.844Z,54.90
2018-06-25T13:05:04.047Z,54.80
2018-06-25T13:06:08.981Z,54.80
2018-06-25T13:07:13.939Z,54.70
2018-06-25T13:08:18.884Z,54.80
2018-06-25T13:09:23.885Z,54.80
2018-06-25T13:10:28.952Z,54.80
2018-06-25T13:11:33.916Z,54.80
2018-06-25T13:12:38.993Z,54.80
2018-06-25T13:13:43.915Z,54.80
2018-06-25T13:14:48.877Z,54.80
2018-06-25T13:15:53.940Z,54.80
2018-06-25T13:16:58.884Z,54.80
2018-06-25T13:18:03.874Z,54.90
2018-06-25T13:19:08.851Z,54.90
2018-06-25T13:20:13.821Z,54.90
2018-06-25T13:21:18.892Z,54.90
2018-06-25T13:22:23.853Z,54.90
2018-06-25T13:23:28.908Z,54.90
2018-06-25T13:24:34.023Z,54.90
2018-06-25T13:25:38.863Z,54.90
2018-06-25T13:26:43.852Z,54.90
2018-06-25T13:27:49.078Z,54.90
2018-06-25T13:28:53.945Z,54.90
2018-06-25T13:29:58.746Z,54.80
2018-06-25T13:31:03.735Z,54.90
2018-06-25T13:32:08.588Z,54.70
2018-06-25T13:33:13.472Z,54.60
2018-06-25T13:34:18.454Z,54.50
2018-06-25T13:35:23.464Z,54.40
2018-06-25T13:36:29.037Z,54.50
2018-06-25T13:37:33.864Z,54.50
2018-06-25T13:38:38.928Z,54.50
2018-06-25T13:39:43.944Z,54.40
2018-06-25T13:40:48.921Z,54.50
2018-06-25T13:41:53.731Z,54.40
2018-06-25T13:42:58.594Z,54.30
2018-06-25T13:44:03.561Z,54.40
2018-06-25T13:45:08.553Z,54.40
2018-06-25T13:46:13.516Z,54.40
2018-06-25T13:47:18.557Z,54.30
2018-06-25T13:48:23.479Z,54.30
2018-06-25T13:49:28.208Z,54.30
2018-06-25T13:50:33.248Z,54.40
2018-06-25T13:51:38.336Z,54.40
2018-06-25T13:52:43.400Z,54.40
2018-06-25T13:53:48.211Z,54.40
2018-06-25T13:54:53.263Z,54.50
2018-06-25T13:55:58.049Z,54.40
2018-06-25T13:57:02.952Z,54.50